Time;durP1;ratioP1;P1;durP2;ratioP2;P2;SDS_P1;SDS_P2;PMS_P1;PMS_P2;Temp;Humidity;BMP_temperature;BMP_pressure;BME280_temperature;BME280_humidity;BME280_pressure;Samples;Min_cycle;Max_cycle;Signal;HPM_P1;HPM_P2
2023/05/26 00:02:13;;;;;;;4.72;3.25;;;;;;;18.80;73.01;101256.88;4993262;28;20034;-86
2023/05/26 00:04:39;;;;;;;3.88;2.70;;;;;;;18.82;73.09;101247.09;5009829;28;20476;-85
2023/05/26 00:07:04;;;;;;;4.65;2.70;;;;;;;18.92;73.07;101259.44;4977072;28;20029;-86
2023/05/26 00:09:30;;;;;;;6.07;3.00;;;;;;;18.85;73.01;101236.38;5009156;28;20411;-86
2023/05/26 00:11:55;;;;;;;4.78;3.22;;;;;;;18.88;73.58;101249.28;4993414;28;20410;-86
2023/05/26 00:14:21;;;;;;;2.97;2.40;;;;;;;18.83;73.84;101238.28;5008856;28;20037;-86
2023/05/26 00:16:46;;;;;;;5.13;3.45;;;;;;;18.83;73.85;101243.53;4993195;28;20025;-86
2023/05/26 00:19:12;;;;;;;6.38;2.65;;;;;;;18.81;74.19;101241.03;5009658;28;20476;-85
2023/05/26 00:21:38;;;;;;;6.43;2.88;;;;;;;18.82;74.38;101247.09;5009364;28;20411;-86
2023/05/26 00:24:05;;;;;;;6.35;3.25;;;;;;;18.80;74.86;101243.78;4993281;28;20038;-87
2023/05/26 00:26:30;;;;;;;4.97;2.67;;;;;;;18.74;75.40;101254.69;4992981;28;20112;-86
2023/05/26 00:28:56;;;;;;;5.10;3.30;;;;;;;18.74;75.22;101259.94;4992408;28;20411;-86
2023/05/26 00:31:21;;;;;;;5.47;3.40;;;;;;;18.70;75.51;101253.25;5009309;28;20026;-86
2023/05/26 00:33:47;;;;;;;4.63;3.35;;;;;;;18.72;75.55;101256.59;5009246;28;20068;-86
2023/05/26 00:36:12;;;;;;;6.80;3.28;;;;;;;18.65;75.52;101244.88;4992734;28;20034;-86
2023/05/26 00:38:38;;;;;;;5.72;2.95;;;;;;;18.67;75.72;101256.09;4992656;28;20034;-85
2023/05/26 00:41:04;;;;;;;6.80;3.40;;;;;;;18.60;75.71;101246.03;4993180;28;20042;-85
2023/05/26 00:43:29;;;;;;;4.60;3.25;;;;;;;18.51;76.23;101246.69;4992437;28;20030;-85
2023/05/26 00:45:55;;;;;;;6.15;2.60;;;;;;;18.43;76.25;101225.44;5008958;28;20034;-86
2023/05/26 00:48:20;;;;;;;3.85;2.47;;;;;;;18.43;76.42;101220.22;4993184;28;20030;-86
2023/05/26 00:50:46;;;;;;;9.93;3.33;;;;;;;18.46;76.92;101240.09;4996108;28;20076;-85
2023/05/26 00:53:11;;;;;;;4.43;2.90;;;;;;;18.45;76.73;101243.69;5012612;28;20030;-86
2023/05/26 00:55:37;;;;;;;4.30;2.95;;;;;;;18.41;76.82;101248.31;4996013;28;20053;-87
2023/05/26 00:58:02;;;;;;;4.97;2.97;;;;;;;18.49;76.56;101266.94;5012203;28;20029;-86
2023/05/26 01:00:28;;;;;;;5.47;2.95;;;;;;;18.40;76.66;101246.63;4995877;28;20439;-85
2023/05/26 01:02:57;;;;;;;4.43;2.78;;;;;;;18.49;76.92;101271.34;5012369;28;20030;-86
2023/05/26 01:05:23;;;;;;;8.98;3.30;;;;;;;18.43;76.84;101267.38;4996191;28;20116;-85
2023/05/26 01:07:48;;;;;;;8.05;3.17;;;;;;;18.27;77.29;101258.91;4979797;28;20026;-87
2023/05/26 01:10:13;;;;;;;4.90;2.97;;;;;;;18.36;77.27;101268.75;5012495;28;20403;-85
2023/05/26 01:12:44;;;;;;;5.20;3.03;;;;;;;18.18;77.30;101243.84;5011725;28;20026;-86
2023/05/26 01:15:12;;;;;;;5.22;3.47;;;;;;;18.30;77.15;101259.56;4996324;28;20049;-85
2023/05/26 01:17:46;;;;;;;4.00;3.00;;;;;;;18.35;77.03;101261.84;4979591;28;20092;-85
2023/05/26 01:20:31;;;;;;;4.75;3.10;;;;;;;18.38;76.99;101264.22;5013031;28;20057;-86
2023/05/26 01:23:05;;;;;;;4.38;2.95;;;;;;;18.23;77.38;101257.47;4995568;28;20030;-86
2023/05/26 01:25:49;;;;;;;4.70;3.20;;;;;;;18.26;77.34;101262.47;4996394;28;20037;-86
2023/05/26 01:28:22;;;;;;;3.15;2.22;;;;;;;18.21;77.20;101246.28;5013084;28;20030;-86
2023/05/26 01:30:48;;;;;;;5.10;2.85;;;;;;;18.23;77.42;101254.84;4996297;28;20040;-86
2023/05/26 01:33:13;;;;;;;7.00;3.35;;;;;;;18.22;77.39;101253.19;4995292;28;20017;-85
2023/05/26 01:35:39;;;;;;;4.63;2.85;;;;;;;18.22;77.36;101247.94;4995142;28;20476;-86
2023/05/26 01:38:05;;;;;;;4.35;2.85;;;;;;;18.22;77.23;101246.16;5011252;28;20033;-86
2023/05/26 01:40:30;;;;;;;5.13;3.45;;;;;;;18.18;77.39;101252.53;4994821;28;20061;-86
2023/05/26 01:43:18;;;;;;;4.90;3.15;;;;;;;18.27;77.35;101243.19;5011731;28;20018;-86
2023/05/26 01:46:08;;;;;;;5.85;3.30;;;;;;;18.23;77.22;101250.47;5011675;28;20026;-86
2023/05/26 01:48:33;;;;;;;6.60;3.28;;;;;;;18.25;77.25;101253.78;4997446;28;20188;-85
2023/05/26 01:50:59;;;;;;;4.82;3.25;;;;;;;18.13;77.57;101244.19;4994976;28;20488;-85
2023/05/26 01:53:32;;;;;;;5.32;3.17;;;;;;;18.24;77.65;101253.91;4978662;28;20030;-87
2023/05/26 01:55:58;;;;;;;4.72;3.30;;;;;;;18.20;77.53;101252.47;4995273;28;20522;-87
2023/05/26 01:58:23;;;;;;;3.78;2.90;;;;;;;18.14;77.45;101239.78;4995364;28;20037;-86
2023/05/26 02:00:49;;;;;;;4.88;3.20;;;;;;;18.20;77.67;101255.09;4978266;28;20384;-85
2023/05/26 02:03:14;;;;;;;5.30;3.30;;;;;;;18.12;77.64;101246.94;5011219;28;20447;-86
2023/05/26 02:05:40;;;;;;;4.72;3.40;;;;;;;18.00;77.71;101227.69;4994917;28;20022;-86
2023/05/26 02:08:06;;;;;;;4.53;3.22;;;;;;;18.09;77.71;101250.56;5011356;28;20083;-86
2023/05/26 02:10:31;;;;;;;5.45;3.08;;;;;;;18.14;77.73;101258.13;5010833;28;20030;-85
2023/05/26 02:12:57;;;;;;;5.28;3.03;;;;;;;18.00;78.03;101243.41;5011128;28;20483;-86
2023/05/26 02:15:22;;;;;;;6.85;2.85;;;;;;;18.05;77.87;101257.81;5010666;28;20396;-86
2023/05/26 02:17:48;;;;;;;5.43;3.45;;;;;;;18.13;77.38;101249.44;4978394;28;20415;-86
2023/05/26 02:20:15;;;;;;;5.65;3.13;;;;;;;18.17;77.03;101265.75;5010987;28;20041;-86
2023/05/26 02:22:40;;;;;;;5.13;3.15;;;;;;;18.16;77.28;101258.84;4994366;28;20080;-85
2023/05/26 02:25:06;;;;;;;4.43;3.00;;;;;;;18.21;77.14;101272.47;5010579;28;20029;-86
2023/05/26 02:27:32;;;;;;;8.43;3.15;;;;;;;18.31;76.78;101278.72;5010693;28;20092;-86
2023/05/26 02:29:57;;;;;;;6.13;3.70;;;;;;;18.31;76.65;101274.31;4994513;28;20030;-85
2023/05/26 02:32:23;;;;;;;4.38;2.97;;;;;;;18.28;76.57;101276.31;5011990;28;20403;-86
2023/05/26 02:34:49;;;;;;;7.97;3.60;;;;;;;18.31;75.94;101276.09;4977924;28;20061;-86
2023/05/26 02:37:17;;;;;;;6.28;3.58;;;;;;;18.32;76.04;101281.22;5010885;28;20054;-86
2023/05/26 02:39:42;;;;;;;5.28;3.60;;;;;;;18.23;76.06;101284.50;5011587;28;20502;-86
2023/05/26 02:42:08;;;;;;;9.50;3.50;;;;;;;18.09;76.39;101261.06;5012034;28;20032;-86
2023/05/26 02:44:33;;;;;;;5.25;3.35;;;;;;;18.17;76.35;101282.31;5010290;28;20025;-86
2023/05/26 02:46:59;;;;;;;5.18;3.15;;;;;;;18.24;76.29;101307.13;5011400;28;20026;-85
2023/05/26 02:49:24;;;;;;;6.30;2.90;;;;;;;18.07;75.77;101283.91;5010212;28;20049;-87
2023/05/26 02:51:50;;;;;;;5.78;3.65;;;;;;;18.29;75.63;101320.75;5010424;28;20479;-87
2023/05/26 02:54:15;;;;;;;7.70;3.35;;;;;;;18.11;76.11;101308.94;5009628;28;20049;-87
2023/05/26 02:56:41;;;;;;;4.32;3.25;;;;;;;18.14;75.96;101313.94;4977460;28;20036;-86
2023/05/26 02:59:06;;;;;;;5.10;3.15;;;;;;;18.08;76.53;101314.38;5010100;28;20040;-84
2023/05/26 03:01:32;;;;;;;6.05;3.80;;;;;;;18.12;76.39;101325.47;4993841;28;20411;-84
2023/05/26 03:03:57;;;;;;;5.05;3.13;;;;;;;18.05;76.73;101304.94;5011377;28;20022;-84
2023/05/26 03:06:23;;;;;;;10.40;3.30;;;;;;;18.08;77.01;101313.53;5010214;28;20036;-84
2023/05/26 03:08:48;;;;;;;4.85;3.00;;;;;;;18.16;77.03;101326.94;4993389;28;20079;-84
2023/05/26 03:11:14;;;;;;;10.88;2.97;;;;;;;18.29;75.74;101335.63;4993477;28;20025;-86
2023/05/26 03:13:40;;;;;;;5.07;3.10;;;;;;;18.23;76.08;101331.66;5009576;28;20476;-86
2023/05/26 03:16:06;;;;;;;4.05;2.70;;;;;;;18.23;75.87;101302.84;4993563;28;20041;-86
2023/05/26 03:18:32;;;;;;;5.75;2.85;;;;;;;18.16;76.58;101322.53;5009766;28;20104;-84
2023/05/26 03:20:58;;;;;;;5.70;3.17;;;;;;;18.20;76.73;101328.41;5011174;28;20057;-84
2023/05/26 03:23:24;;;;;;;4.82;3.25;;;;;;;18.30;76.18;101314.56;4993302;28;20411;-84
2023/05/26 03:25:49;;;;;;;6.10;3.50;;;;;;;18.19;77.01;101317.09;5009965;28;20037;-84
2023/05/26 03:28:15;;;;;;;5.53;3.28;;;;;;;18.08;77.18;101306.50;5010787;28;20054;-84
2023/05/26 03:30:40;;;;;;;4.90;3.55;;;;;;;18.06;76.92;101301.38;5011307;28;20040;-84
2023/05/26 03:33:06;;;;;;;5.45;4.05;;;;;;;18.54;75.86;101311.97;4993331;28;20034;-83
2023/05/26 03:35:31;;;;;;;5.95;3.45;;;;;;;18.58;75.07;101315.19;5009037;28;20484;-86
2023/05/26 03:37:57;;;;;;;7.18;3.80;;;;;;;18.55;74.97;101287.44;5002532;28;20404;-84
2023/05/26 03:40:22;;;;;;;6.25;3.60;;;;;;;18.61;74.90;101275.69;5010759;28;20479;-84
2023/05/26 03:42:48;;;;;;;6.25;3.55;;;;;;;19.68;70.77;101305.34;5009909;28;20376;-83
2023/05/26 03:45:13;;;;;;;7.43;3.42;;;;;;;20.02;68.62;101269.41;5025854;28;20033;-84
2023/05/26 03:47:39;;;;;;;4.97;3.08;;;;;;;19.86;69.15;101286.47;5009849;28;20034;-84
2023/05/26 03:50:05;;;;;;;10.13;4.55;;;;;;;20.34;67.67;101292.31;4993132;28;20415;-85
2023/05/26 03:52:31;;;;;;;9.13;4.47;;;;;;;20.04;67.98;101274.53;4992618;28;20022;-82
2023/05/26 03:54:56;;;;;;;7.97;4.32;;;;;;;19.77;69.46;101281.00;4992758;28;20045;-82
2023/05/26 03:57:22;;;;;;;7.18;3.65;;;;;;;19.79;69.46;101296.63;5009398;28;20527;-83
2023/05/26 03:59:47;;;;;;;7.38;3.53;;;;;;;19.43;69.91;101276.63;5007729;28;20060;-83
2023/05/26 04:02:13;;;;;;;5.40;3.75;;;;;;;19.41;71.09;101291.66;4992585;28;20335;-82
2023/05/26 04:04:38;;;;;;;6.78;3.55;;;;;;;19.06;72.62;101300.34;5009934;28;20161;-83
2023/05/26 04:07:04;;;;;;;8.25;3.83;;;;;;;18.93;73.13;101291.72;5008352;28;20085;-84
2023/05/26 04:09:31;;;;;;;5.15;3.28;;;;;;;18.89;73.29;101295.53;5025233;28;20080;-83
2023/05/26 04:11:57;;;;;;;5.53;3.53;;;;;;;18.80;73.55;101296.19;5024456;28;20038;-84
2023/05/26 04:14:22;;;;;;;6.93;3.72;;;;;;;18.61;74.67;101302.72;5010405;28;20038;-83
2023/05/26 04:16:48;;;;;;;5.20;3.33;;;;;;;18.73;74.51;101322.00;4997215;28;20025;-84
2023/05/26 04:19:13;;;;;;;6.72;3.22;;;;;;;18.80;74.32;101320.63;5009300;28;20045;-85
2023/05/26 04:21:39;;;;;;;5.15;3.90;;;;;;;18.77;74.81;101315.59;5007945;28;20029;-88
2023/05/26 04:24:05;;;;;;;9.45;4.70;;;;;;;18.77;74.23;101306.88;5021492;28;20041;-86
2023/05/26 04:26:33;;;;;;;8.38;4.15;;;;;;;18.81;74.59;101308.34;5025737;28;20026;-87
2023/05/26 04:29:02;;;;;;;6.65;3.60;;;;;;;18.66;75.13;101297.19;5025136;28;20029;-86
2023/05/26 04:31:31;;;;;;;10.32;4.00;;;;;;;18.74;75.45;101320.22;5033054;28;20083;-92
2023/05/26 04:33:57;;;;;;;7.78;4.30;;;;;;;18.74;74.71;101313.19;5013098;28;20033;-83
2023/05/26 04:36:23;;;;;;;5.30;3.40;;;;;;;18.67;74.69;101305.88;5009111;28;20045;-91
2023/05/26 04:38:49;;;;;;;6.47;3.70;;;;;;;18.61;75.46;101299.28;4983946;28;20037;-94
2023/05/26 04:41:16;;;;;;;11.55;3.60;;;;;;;18.58;75.72;101302.09;4979443;28;20030;-93
2023/05/26 04:43:43;;;;;;;6.13;3.67;;;;;;;18.52;76.12;101303.38;5014032;28;20083;-90
2023/05/26 04:46:10;;;;;;;5.75;3.75;;;;;;;18.34;75.90;101273.25;4997023;28;20030;-90
2023/05/26 04:48:39;;;;;;;8.90;4.22;;;;;;;18.43;76.29;101287.50;4996477;28;20034;-86
2023/05/26 04:51:05;;;;;;;5.25;4.00;;;;;;;18.56;76.42;101314.47;5009147;28;20075;-90
2023/05/26 04:53:31;;;;;;;15.95;9.07;;;;;;;18.54;76.46;101308.53;4992654;28;20040;-86
2023/05/26 04:56:01;;;;;;;6.32;4.10;;;;;;;18.62;76.42;101320.13;5012336;28;20965;-85
2023/05/26 04:58:26;;;;;;;5.70;3.72;;;;;;;18.53;76.34;101285.88;4995318;28;20917;-88
2023/05/26 05:00:53;;;;;;;5.18;3.70;;;;;;;18.74;76.33;101302.72;5011778;28;20025;-81
2023/05/26 05:03:20;;;;;;;5.53;3.95;;;;;;;18.83;75.37;101307.28;5009882;28;20038;-91
2023/05/26 05:05:46;;;;;;;6.60;3.90;;;;;;;18.82;75.56;101289.06;4999244;28;20479;-85
2023/05/26 05:08:11;;;;;;;7.88;4.47;;;;;;;18.90;75.35;101297.19;5034536;28;20034;-86
2023/05/26 05:10:37;;;;;;;7.72;4.18;;;;;;;19.01;75.39;101309.53;5010693;28;20486;-90
2023/05/26 05:13:03;;;;;;;9.95;4.43;;;;;;;18.97;75.73;101303.66;5007148;28;20069;-85
2023/05/26 05:15:29;;;;;;;6.25;4.18;;;;;;;19.07;75.49;101304.63;4994029;28;20037;-88
2023/05/26 05:17:54;;;;;;;7.60;4.47;;;;;;;19.06;74.88;101292.47;5010792;28;20025;-80
2023/05/26 05:20:20;;;;;;;6.70;4.13;;;;;;;19.11;74.41;101294.78;5010137;28;20038;-85
2023/05/26 05:22:45;;;;;;;7.07;4.82;;;;;;;19.26;73.62;101308.53;5011909;28;20041;-84
2023/05/26 05:25:10;;;;;;;12.40;7.57;;;;;;;19.33;73.23;101315.84;5011515;28;20510;-86
2023/05/26 05:27:36;;;;;;;6.35;4.03;;;;;;;19.37;73.59;101319.91;5009259;28;20442;-90
2023/05/26 05:30:02;;;;;;;6.50;3.88;;;;;;;19.41;73.27;101329.22;4984097;28;20030;-86
2023/05/26 05:32:27;;;;;;;7.60;4.00;;;;;;;19.48;73.05;101324.34;5010269;28;20025;-83
2023/05/26 05:34:53;;;;;;;6.45;4.15;;;;;;;19.34;73.03;101300.91;5005091;28;20049;-86
2023/05/26 05:37:19;;;;;;;8.32;4.50;;;;;;;19.62;72.67;101331.22;4986952;28;20087;-83
2023/05/26 05:39:45;;;;;;;8.30;4.72;;;;;;;19.53;72.21;101305.63;5009389;28;20061;-88
2023/05/26 05:42:10;;;;;;;9.00;4.38;;;;;;;19.80;72.09;101337.69;5010339;28;20034;-89
2023/05/26 05:44:35;;;;;;;6.25;4.20;;;;;;;19.79;71.62;101337.81;5025160;28;20042;-81
2023/05/26 05:47:01;;;;;;;5.68;4.18;;;;;;;19.84;71.74;101339.13;5009198;28;20030;-83
2023/05/26 05:49:26;;;;;;;9.55;4.03;;;;;;;19.80;72.04;101345.56;4993874;28;20544;-85
2023/05/26 05:51:52;;;;;;;9.77;5.10;;;;;;;19.73;72.57;101323.34;5009013;28;20479;-82
2023/05/26 05:54:17;;;;;;;10.30;4.57;;;;;;;19.88;72.53;101353.69;5007021;28;20073;-85
2023/05/26 05:56:43;;;;;;;6.80;4.07;;;;;;;19.91;72.30;101344.75;5010813;28;20096;-83
2023/05/26 05:59:10;;;;;;;7.53;3.83;;;;;;;19.99;72.35;101352.88;4993963;28;20073;-89
2023/05/26 06:01:36;;;;;;;7.30;4.35;;;;;;;19.96;71.84;101347.84;4991295;28;20153;-90
2023/05/26 06:04:02;;;;;;;7.95;3.78;;;;;;;19.94;71.58;101349.75;5021514;28;20153;-81
2023/05/26 06:06:27;;;;;;;10.75;4.47;;;;;;;19.94;71.18;101345.31;5009041;28;20030;-80
2023/05/26 06:08:53;;;;;;;9.13;6.15;;;;;;;19.99;71.13;101343.19;5011134;28;20037;-85
2023/05/26 06:11:18;;;;;;;21.17;10.70;;;;;;;19.95;71.17;101335.66;4999530;28;20380;-84
2023/05/26 06:13:43;;;;;;;8.57;4.80;;;;;;;19.94;71.62;101318.22;5018619;28;20038;-87
2023/05/26 06:16:09;;;;;;;5.88;4.18;;;;;;;19.91;71.67;101316.69;5010349;28;20029;-94
2023/05/26 06:18:34;;;;;;;6.63;4.13;;;;;;;20.04;71.51;101335.78;5011274;28;20037;-86
2023/05/26 06:21:00;;;;;;;5.97;4.60;;;;;;;20.09;71.70;101338.06;5012015;28;20041;-94
2023/05/26 06:23:25;;;;;;;9.27;4.20;;;;;;;20.17;71.53;101346.19;5020464;28;20503;-91
2023/05/26 06:25:51;;;;;;;6.00;4.18;;;;;;;20.22;70.84;101351.06;4991507;28;20030;-88
2023/05/26 06:28:16;;;;;;;8.88;5.30;;;;;;;20.32;70.42;101354.66;5002697;28;20041;-87
2023/05/26 06:30:42;;;;;;;6.78;4.40;;;;;;;20.35;70.59;101341.28;5008681;28;20499;-86
2023/05/26 06:33:07;;;;;;;10.52;4.85;;;;;;;20.49;70.71;101353.38;5021023;28;20041;-84
2023/05/26 06:35:33;;;;;;;9.05;4.32;;;;;;;20.51;69.90;101348.81;5010138;28;20421;-88
2023/05/26 06:37:58;;;;;;;7.70;4.95;;;;;;;20.57;70.19;101361.50;4983908;28;20060;-86
2023/05/26 06:40:24;;;;;;;22.45;14.35;;;;;;;20.57;69.51;101366.75;5007037;28;20052;-87
2023/05/26 06:42:50;;;;;;;5.85;3.85;;;;;;;20.53;69.68;101349.53;5010125;28;20034;-91
2023/05/26 06:45:15;;;;;;;5.88;3.83;;;;;;;20.57;69.15;101361.50;4972388;28;20057;-91
2023/05/26 06:47:40;;;;;;;5.95;4.28;;;;;;;20.70;69.42;101366.59;5005932;28;20034;-88
2023/05/26 06:50:07;;;;;;;6.55;4.95;;;;;;;20.74;69.40;101344.34;5009009;28;20483;-86
2023/05/26 06:52:32;;;;;;;8.50;4.85;;;;;;;20.88;69.16;101350.19;5008452;28;20520;-87
2023/05/26 06:54:57;;;;;;;12.70;5.55;;;;;;;21.27;69.04;101361.09;5010367;28;20053;-89
2023/05/26 06:57:23;;;;;;;18.20;10.13;;;;;;;21.43;67.32;101356.22;4992145;28;20034;-92
2023/05/26 06:59:48;;;;;;;7.10;4.30;;;;;;;21.45;68.18;101364.00;5008423;28;20487;-84
2023/05/26 07:02:14;;;;;;;7.53;4.80;;;;;;;21.60;67.01;101346.06;4988742;28;20038;-85
2023/05/26 07:04:41;;;;;;;7.00;4.22;;;;;;;21.72;66.26;101350.28;4991955;28;20033;-86
2023/05/26 07:07:07;;;;;;;6.35;4.50;;;;;;;22.19;64.37;101355.97;5009154;28;20069;-85
2023/05/26 07:09:32;;;;;;;9.20;4.05;;;;;;;22.33;63.48;101358.28;5005982;28;20484;-90
2023/05/26 07:11:58;;;;;;;6.00;3.90;;;;;;;22.49;63.77;101363.84;5014663;28;20513;-86
2023/05/26 07:14:23;;;;;;;5.85;4.10;;;;;;;22.57;62.70;101369.28;5009231;28;20045;-92
2023/05/26 07:16:49;;;;;;;7.00;4.53;;;;;;;22.47;63.02;101357.88;4973808;28;20037;-88
2023/05/26 07:19:14;;;;;;;7.30;4.78;;;;;;;22.51;62.23;101369.81;4986933;28;20037;-87
2023/05/26 07:21:40;;;;;;;6.82;4.50;;;;;;;22.33;63.31;101371.44;5009661;28;20030;-87
2023/05/26 07:24:05;;;;;;;5.47;3.97;;;;;;;22.33;62.67;101376.72;5003316;28;20492;-92
2023/05/26 07:26:31;;;;;;;7.07;4.68;;;;;;;22.42;63.59;101375.06;4989365;28;20390;-88
2023/05/26 07:28:56;;;;;;;8.05;4.65;;;;;;;22.47;63.48;101376.34;4993805;28;20466;-83
2023/05/26 07:31:22;;;;;;;5.70;3.90;;;;;;;22.41;64.00;101371.59;5009297;28;20462;-92
2023/05/26 07:33:47;;;;;;;7.85;4.60;;;;;;;22.47;63.10;101378.97;4991470;28;20060;-86
2023/05/26 07:36:13;;;;;;;7.68;4.90;;;;;;;22.47;63.39;101380.78;4988593;28;20064;-93
2023/05/26 07:38:39;;;;;;;8.35;4.95;;;;;;;22.45;63.00;101373.00;4973058;28;20057;-90
2023/05/26 07:41:04;;;;;;;7.85;4.95;;;;;;;22.57;63.28;101371.09;5010500;28;20037;-84
2023/05/26 07:43:30;;;;;;;8.05;4.50;;;;;;;22.69;62.76;101356.00;5009643;28;20080;-86
2023/05/26 07:45:56;;;;;;;5.38;4.38;;;;;;;22.98;63.05;101367.47;5008421;28;20038;-86
2023/05/26 07:48:22;;;;;;;7.30;4.68;;;;;;;23.24;62.26;101353.72;5011183;28;20060;-89
2023/05/26 07:50:47;;;;;;;8.27;5.13;;;;;;;23.37;60.60;101346.34;5009954;28;20040;-89
2023/05/26 07:53:13;;;;;;;8.93;5.05;;;;;;;23.55;60.58;101357.88;5008601;28;20042;-86
2023/05/26 07:55:38;;;;;;;7.43;4.65;;;;;;;23.69;60.75;101362.72;4991086;28;20057;-87
2023/05/26 07:58:05;;;;;;;9.32;4.70;;;;;;;23.71;59.78;101337.03;5007226;28;20034;-90
2023/05/26 08:00:30;;;;;;;7.50;4.70;;;;;;;23.92;58.75;101357.97;5010245;28;20026;-88
2023/05/26 08:02:56;;;;;;;6.28;4.43;;;;;;;24.07;59.28;101353.03;4994513;28;20042;-87
2023/05/26 08:05:24;;;;;;;8.45;4.82;;;;;;;24.11;59.11;101357.06;5011375;28;20026;-91
2023/05/26 08:07:49;;;;;;;5.55;4.18;;;;;;;24.10;59.12;101344.81;5012076;28;20116;-87
2023/05/26 08:10:14;;;;;;;6.18;4.32;;;;;;;24.28;58.99;101358.06;5010095;28;20038;-89
2023/05/26 08:12:40;;;;;;;9.27;4.43;;;;;;;24.16;58.65;101325.72;4994292;28;20041;-88
2023/05/26 08:15:15;;;;;;;9.25;4.75;;;;;;;24.30;57.75;101349.03;5028563;28;20084;-88
2023/05/26 08:17:42;;;;;;;10.27;4.10;;;;;;;24.46;58.30;101360.81;5011088;28;20108;-85
2023/05/26 08:20:08;;;;;;;6.85;4.60;;;;;;;24.14;57.90;101335.59;5011150;28;20061;-87
2023/05/26 08:22:34;;;;;;;5.57;3.90;;;;;;;24.40;57.96;101356.13;5012340;28;20509;-86
2023/05/26 08:24:59;;;;;;;6.03;3.92;;;;;;;24.59;58.08;101363.97;5011612;28;20033;-88
2023/05/26 08:27:25;;;;;;;5.47;3.65;;;;;;;24.72;57.37;101356.50;5013310;28;20034;-91
2023/05/26 08:29:50;;;;;;;5.57;4.20;;;;;;;24.73;55.42;101339.63;4995378;28;20034;-84
2023/05/26 08:32:16;;;;;;;10.88;4.20;;;;;;;24.89;55.30;101346.91;5017480;28;20037;-87
2023/05/26 08:34:42;;;;;;;6.80;4.10;;;;;;;25.12;55.29;101347.31;4996157;28;20041;-88
2023/05/26 08:37:08;;;;;;;5.78;3.75;;;;;;;25.25;54.92;101342.44;4992614;28;20137;-89
2023/05/26 08:39:35;;;;;;;8.23;4.20;;;;;;;25.28;55.49;101339.50;5013878;28;20084;-93
2023/05/26 08:42:01;;;;;;;8.20;3.88;;;;;;;25.22;54.02;101337.47;5009176;28;20038;-88
2023/05/26 08:44:27;;;;;;;9.70;6.65;;;;;;;25.16;54.41;101332.78;5010163;28;20507;-88
2023/05/26 08:46:55;;;;;;;5.63;4.13;;;;;;;25.14;53.88;101321.50;5007780;28;20027;-88
2023/05/26 08:49:21;;;;;;;4.50;3.55;;;;;;;25.11;54.48;101330.59;4971645;28;20407;-86
2023/05/26 08:51:50;;;;;;;6.20;3.70;;;;;;;25.11;54.33;101332.41;4994005;28;20030;-87
2023/05/26 08:54:16;;;;;;;6.97;4.40;;;;;;;24.94;54.61;101320.81;5005625;28;20054;-83
2023/05/26 08:56:42;;;;;;;5.95;4.30;;;;;;;24.85;55.46;101325.19;4991277;28;20484;-91
2023/05/26 08:59:08;;;;;;;5.20;3.90;;;;;;;24.78;54.51;101321.50;5006500;28;20066;-86
2023/05/26 09:01:34;;;;;;;6.40;4.57;;;;;;;24.67;55.84;101294.41;5005066;28;20117;-88
2023/05/26 09:04:00;;;;;;;6.05;4.15;;;;;;;24.96;55.09;101332.06;5011661;28;20070;-89
2023/05/26 09:06:25;;;;;;;5.78;4.20;;;;;;;24.93;54.08;101313.03;5010290;28;20369;-86
2023/05/26 09:08:52;;;;;;;4.97;3.42;;;;;;;25.10;53.01;101313.06;4995320;28;20478;-89
2023/05/26 09:11:21;;;;;;;3.97;3.17;;;;;;;25.17;52.40;101311.47;5011519;28;20030;-83
2023/05/26 09:13:51;;;;;;;5.20;3.65;;;;;;;25.08;54.73;101314.19;5009822;28;20034;-86
2023/05/26 09:16:16;;;;;;;6.18;3.90;;;;;;;25.09;52.95;101302.63;5009086;28;20045;-88
2023/05/26 09:18:42;;;;;;;4.50;3.38;;;;;;;25.07;53.57;101304.56;5018891;28;20029;-87
2023/05/26 09:21:08;;;;;;;5.20;3.92;;;;;;;24.99;53.30;101304.50;5011167;28;20385;-89
2023/05/26 09:23:33;;;;;;;5.30;3.25;;;;;;;24.83;53.60;101279.53;5011391;28;20109;-85
2023/05/26 09:25:58;;;;;;;5.15;3.88;;;;;;;24.76;54.03;101272.34;5009533;28;20032;-84
2023/05/26 09:28:24;;;;;;;4.55;3.85;;;;;;;24.83;53.84;101299.88;5009975;28;20026;-92
2023/05/26 09:30:49;;;;;;;6.55;4.03;;;;;;;24.94;55.63;101293.50;4973657;28;20034;-92
2023/05/26 09:33:16;;;;;;;7.50;3.58;;;;;;;25.00;54.35;101295.56;5000135;28;20420;-89
2023/05/26 09:35:43;;;;;;;5.53;3.63;;;;;;;25.03;53.88;101296.09;5011825;28;20030;-89
2023/05/26 09:38:09;;;;;;;7.75;3.85;;;;;;;25.05;53.62;101285.34;4975540;28;20133;-89
2023/05/26 09:40:43;;;;;;;4.60;3.67;;;;;;;24.96;54.05;101279.13;4995329;28;20057;-87
2023/05/26 09:43:09;;;;;;;5.30;4.03;;;;;;;24.98;54.08;101273.72;4994898;28;20030;-86
2023/05/26 09:45:35;;;;;;;9.30;4.43;;;;;;;25.11;54.78;101288.25;4995818;28;20059;-92
2023/05/26 09:48:05;;;;;;;8.20;3.70;;;;;;;25.13;55.54;101282.78;4994719;28;20092;-91
2023/05/26 09:50:31;;;;;;;7.03;4.40;;;;;;;25.03;55.11;101255.56;4994633;28;20022;-85
2023/05/26 09:52:57;;;;;;;7.40;4.50;;;;;;;25.19;55.42;101278.69;5009898;28;20030;-84
2023/05/26 09:55:23;;;;;;;5.40;4.20;;;;;;;25.16;54.80;101259.47;4991994;28;20060;-87
2023/05/26 09:57:48;;;;;;;6.57;4.53;;;;;;;25.26;55.15;101277.06;5009177;28;20440;-87
2023/05/26 10:00:14;;;;;;;6.40;4.35;;;;;;;25.27;55.36;101287.53;5008847;28;20033;-85
2023/05/26 10:02:40;;;;;;;9.23;4.70;;;;;;;25.30;54.93;101289.88;5007567;28;20030;-85
2023/05/26 10:05:06;;;;;;;7.88;4.75;;;;;;;25.26;55.62;101285.84;4992188;28;20052;-86
2023/05/26 10:07:31;;;;;;;8.68;4.57;;;;;;;25.37;54.91;101282.97;4992577;28;20049;-85
2023/05/26 10:10:01;;;;;;;6.55;5.10;;;;;;;25.39;54.38;101283.66;5008009;28;20030;-84
2023/05/26 10:12:30;;;;;;;69.22;40.53;;;;;;;25.24;55.50;101265.81;4998426;28;20486;-87
2023/05/26 10:14:56;;;;;;;21.52;14.32;;;;;;;25.36;55.79;101270.69;5010036;28;20033;-91
2023/05/26 10:17:22;;;;;;;9.98;5.38;;;;;;;25.58;55.07;101273.84;4999685;28;20033;-88
2023/05/26 10:19:47;;;;;;;5.97;4.70;;;;;;;25.76;54.87;101271.94;5016778;28;20025;-93
2023/05/26 10:22:18;;;;;;;6.78;5.00;;;;;;;25.89;54.29;101251.16;4994393;28;20088;-88
2023/05/26 10:24:59;;;;;;;6.65;4.57;;;;;;;26.21;52.98;101266.34;4992539;28;20053;-84
2023/05/26 10:27:38;;;;;;;11.38;4.72;;;;;;;26.42;53.02;101257.13;5007323;28;20088;-83
2023/05/26 10:30:11;;;;;;;5.82;4.63;;;;;;;26.53;51.50;101255.00;5028806;28;20079;-83
2023/05/26 10:32:55;;;;;;;7.18;5.60;;;;;;;26.75;51.91;101252.72;5029176;28;20079;-83
2023/05/26 10:35:25;;;;;;;5.78;4.50;;;;;;;26.79;52.00;101232.81;5038004;28;20029;-84
2023/05/26 10:37:53;;;;;;;6.13;4.20;;;;;;;26.80;50.03;101234.44;5008367;28;20503;-87
2023/05/26 10:40:31;;;;;;;4.63;3.75;;;;;;;27.04;50.91;101231.84;5028660;28;20029;-89
2023/05/26 10:43:01;;;;;;;5.30;4.03;;;;;;;27.12;49.82;101212.38;5031005;28;20151;-92
2023/05/26 10:45:32;;;;;;;5.18;4.20;;;;;;;27.45;49.42;101221.13;5030075;28;20403;-83
2023/05/26 10:47:59;;;;;;;6.65;3.83;;;;;;;27.82;46.85;101224.97;5022292;28;20034;-91
2023/05/26 10:50:24;;;;;;;9.88;6.15;;;;;;;27.80;46.44;101216.38;5023726;28;20033;-88
2023/05/26 10:52:51;;;;;;;10.80;6.93;;;;;;;27.90;45.69;101228.44;5025459;28;20045;-87
2023/05/26 10:55:32;;;;;;;4.90;4.13;;;;;;;28.09;45.29;101219.19;5007524;28;20045;-89
2023/05/26 10:58:35;;;;;;;4.68;3.60;;;;;;;28.17;45.21;101213.84;5009254;28;20073;-87
2023/05/26 11:01:03;;;;;;;4.95;3.72;;;;;;;28.10;44.74;101210.22;5023993;28;20026;-89
2023/05/26 11:03:40;;;;;;;4.00;3.50;;;;;;;28.13;44.91;101199.25;5010497;28;20076;-89
2023/05/26 11:06:06;;;;;;;5.43;3.83;;;;;;;28.20;44.87;101199.34;4992351;28;20052;-89
2023/05/26 11:08:45;;;;;;;4.65;3.78;;;;;;;28.50;44.50;101200.34;5007441;28;20073;-90
2023/05/26 11:11:11;;;;;;;6.13;3.92;;;;;;;28.68;43.67;101198.19;5008693;28;20026;-91
2023/05/26 11:13:50;;;;;;;6.55;3.70;;;;;;;28.75;43.43;101190.31;5007920;28;20025;-88
2023/05/26 11:16:16;;;;;;;5.75;3.65;;;;;;;28.90;43.60;101185.03;5016571;28;20491;-86
2023/05/26 11:18:47;;;;;;;5.35;4.05;;;;;;;28.95;43.10;101180.84;5030805;28;20064;-83
2023/05/26 11:21:13;;;;;;;5.40;3.67;;;;;;;28.89;42.59;101172.75;5010072;28;20529;-86
2023/05/26 11:23:38;;;;;;;7.55;4.47;;;;;;;29.05;42.14;101177.91;5011126;28;20514;-93